Time;durP1;ratioP1;P1;durP2;ratioP2;P2;SDS_P1;SDS_P2;PMS_P1;PMS_P2;Temp;Humidity;BMP_temperature;BMP_pressure;BME280_temperature;BME280_humidity;BME280_pressure;Samples;Min_cycle;Max_cycle;Signal;HPM_P1;HPM_P2
2023/02/14 00:01:53;;;;;;;;;;;;;;;;;;6156258;23;19909;-78
2023/02/14 00:04:19;;;;;;;;;;;;;;;;;;6153172;23;19919;-78
2023/02/14 00:06:44;;;;;;;;;;;;;;;;;;6153353;23;20342;-78
2023/02/14 00:09:10;;;;;;;;;;;;;;;;;;6178431;23;20400;-78
2023/02/14 00:11:35;;;;;;;;;;;;;;;;;;6155082;23;19912;-77
2023/02/14 00:16:45;;;;;;;;;;;;;;;;;;6154498;23;19940;-77
2023/02/14 00:19:10;;;;;;;;;;;;;;;;;;6153515;23;19916;-79
2023/02/14 00:21:35;;;;;;;;;;;;;;;;;;6155642;23;19939;-78
2023/02/14 00:24:01;;;;;;;;;;;;;;;;;;6153831;23;19922;-78
2023/02/14 00:26:26;;;;;;;;;;;;;;;;;;6154675;23;19909;-78
2023/02/14 00:28:51;;;;;;;;;;;;;;;;;;6154692;23;19944;-78
2023/02/14 00:31:17;;;;;;;;;;;;;;;;;;6155340;23;19908;-78
2023/02/14 00:33:42;;;;;;;;;;;;;;;;;;6155215;23;19916;-78
2023/02/14 00:36:08;;;;;;;;;;;;;;;;;;6153001;23;20028;-79
2023/02/14 00:38:33;;;;;;;;;;;;;;;;;;6155339;23;19931;-79
2023/02/14 00:40:58;;;;;;;;;;;;;;;;;;6153914;23;19909;-78
2023/02/14 00:43:24;;;;;;;;;;;;;;;;;;6156141;23;19909;-79
2023/02/14 00:45:49;;;;;;;;;;;;;;;;;;6129200;23;19938;-79
2023/02/14 00:48:14;;;;;;;;;;;;;;;;;;6153577;23;19916;-79
2023/02/14 00:50:40;;;;;;;;;;;;;;;;;;6153177;23;20334;-77
2023/02/14 00:53:05;;;;;;;;;;;;;;;;;;6154994;23;19975;-77
2023/02/14 00:55:31;;;;;;;;;;;;;;;;;;6154558;23;19909;-79
2023/02/14 00:57:56;;;;;;;;;;;;;;;;;;6128696;23;19940;-79
2023/02/14 01:00:21;;;;;;;;;;;;;;;;;;6155161;23;19955;-79
2023/02/14 01:02:47;;;;;;;;;;;;;;;;;;6153987;23;19909;-79
2023/02/14 01:05:12;;;;;;;;;;;;;;;;;;6155446;23;19916;-79
2023/02/14 01:07:37;;;;;;;;;;;;;;;;;;6153941;23;19959;-78
2023/02/14 01:10:03;;;;;;;;;;;;;;;;;;6155367;23;19916;-78
2023/02/14 01:12:29;;;;;;;;;;;;;;;;;;6130908;23;20376;-78
2023/02/14 01:14:54;;;;;;;;;;;;;;;;;;6154873;23;20270;-78
2023/02/14 01:17:19;;;;;;;;;;;;;;;;;;6156715;23;19908;-78
2023/02/14 01:19:46;;;;;;;;;;;;;;;;;;6156256;23;19923;-79
2023/02/14 01:22:11;;;;;;;;;;;;;;;;;;6156564;23;19909;-78
2023/02/14 01:24:36;;;;;;;;;;;;;;;;;;6157487;23;19913;-78
2023/02/14 01:27:02;;;;;;;;;;;;;;;;;;6157793;23;20335;-78
2023/02/14 01:29:27;;;;;;;;;;;;;;;;;;6158716;23;19908;-78
2023/02/14 01:31:52;;;;;;;;;;;;;;;;;;6159476;23;20251;-78
2023/02/14 01:34:18;;;;;;;;;;;;;;;;;;6159141;23;19935;-79
2023/02/14 01:36:45;;;;;;;;;;;;;;;;;;6156943;23;19944;-79
2023/02/14 01:39:11;;;;;;;;;;;;;;;;;;6160797;23;19955;-78
2023/02/14 01:41:36;;;;;;;;;;;;;;;;;;6161557;23;19908;-78
2023/02/14 01:44:02;;;;;;;;;;;;;;;;;;6160812;23;19932;-77
2023/02/14 01:46:27;;;;;;;;;;;;;;;;;;6164060;23;19915;-79
2023/02/14 01:48:52;;;;;;;;;;;;;;;;;;6163759;23;19915;-79
2023/02/14 01:51:18;;;;;;;;;;;;;;;;;;6163128;23;19991;-79
2023/02/14 01:53:43;;;;;;;;;;;;;;;;;;6135169;23;20389;-79
2023/02/14 01:56:08;;;;;;;;;;;;;;;;;;6159322;23;19909;-78
2023/02/14 01:58:35;;;;;;;;;;;;;;;;;;6157313;23;19931;-78
2023/02/14 02:01:00;;;;;;;;;;;;;;;;;;6157691;23;19916;-78
2023/02/14 02:03:26;;;;;;;;;;;;;;;;;;6158494;23;19908;-78
2023/02/14 02:05:51;;;;;;;;;;;;;;;;;;6155593;23;19940;-78
2023/02/14 02:08:16;;;;;;;;;;;;;;;;;;6180350;23;19916;-78
2023/02/14 02:10:42;;;;;;;;;;;;;;;;;;6155505;23;19909;-79
2023/02/14 02:13:08;;;;;;;;;;;;;;;;;;6157810;23;19975;-79
2023/02/14 02:15:33;;;;;;;;;;;;;;;;;;6157522;23;19928;-79
2023/02/14 02:17:58;;;;;;;;;;;;;;;;;;6157631;23;20004;-78
2023/02/14 02:20:24;;;;;;;;;;;;;;;;;;6160609;23;19959;-79
2023/02/14 02:22:50;;;;;;;;;;;;;;;;;;6156929;23;19908;-79
2023/02/14 02:25:15;;;;;;;;;;;;;;;;;;6158569;23;19915;-80
2023/02/14 02:27:41;;;;;;;;;;;;;;;;;;6132328;23;19956;-79
2023/02/14 02:30:07;;;;;;;;;;;;;;;;;;6156098;23;19916;-79
2023/02/14 02:32:32;;;;;;;;;;;;;;;;;;6156774;23;19909;-78
2023/02/14 02:35:00;;;;;;;;;;;;;;;;;;6156224;23;19967;-78
2023/02/14 02:37:25;;;;;;;;;;;;;;;;;;6158519;23;19941;-78
2023/02/14 02:39:53;;;;;;;;;;;;;;;;;;6156075;23;20342;-79
2023/02/14 02:42:18;;;;;;;;;;;;;;;;;;6156021;23;19917;-78
2023/02/14 02:44:44;;;;;;;;;;;;;;;;;;6154840;23;19915;-78
2023/02/14 02:47:09;;;;;;;;;;;;;;;;;;6157126;23;20354;-78
2023/02/14 02:55:02;;;;;;;;;;;;;;;;;;6157918;23;19919;-79
2023/02/14 02:57:28;;;;;;;;;;;;;;;;;;6160068;23;19908;-78
2023/02/14 02:59:53;;;;;;;;;;;;;;;;;;6133519;23;20342;-79
2023/02/14 03:02:19;;;;;;;;;;;;;;;;;;6158083;23;19909;-79
2023/02/14 03:04:53;;;;;;;;;;;;;;;;;;6159178;23;19908;-79
2023/02/14 03:07:34;;;;;;;;;;;;;;;;;;6159645;23;19915;-78
2023/02/14 03:10:00;;;;;;;;;;;;;;;;;;6159169;23;19909;-79
2023/02/14 03:12:27;;;;;;;;;;;;;;;;;;6135891;23;19909;-78
2023/02/14 03:14:52;;;;;;;;;;;;;;;;;;6161538;23;19953;-79
2023/02/14 03:17:18;;;;;;;;;;;;;;;;;;6160423;23;19960;-78
2023/02/14 03:22:28;;;;;;;;;;;;;;;;;;6159798;23;19909;-79
2023/02/14 03:24:54;;;;;;;;;;;;;;;;;;6159736;23;19980;-79
2023/02/14 03:27:19;;;;;;;;;;;;;;;;;;6159771;23;20003;-80
2023/02/14 03:29:44;;;;;;;;;;;;;;;;;;6159976;23;19909;-80
2023/02/14 03:32:10;;;;;;;;;;;;;;;;;;6133638;23;19976;-78
2023/02/14 03:34:35;;;;;;;;;;;;;;;;;;6155107;23;19979;-79
2023/02/14 03:37:01;;;;;;;;;;;;;;;;;;6154796;23;19991;-79
2023/02/14 03:39:26;;;;;;;;;;;;;;;;;;6155904;23;19916;-79
2023/02/14 03:41:51;;;;;;;;;;;;;;;;;;6154649;23;19909;-79
2023/02/14 03:44:17;;;;;;;;;;;;;;;;;;6156257;23;19909;-79
2023/02/14 03:46:42;;;;;;;;;;;;;;;;;;6155512;23;19964;-79
2023/02/14 03:49:07;;;;;;;;;;;;;;;;;;6156657;23;19908;-79
2023/02/14 03:51:33;;;;;;;;;;;;;;;;;;6179977;23;19920;-79
2023/02/14 03:53:58;;;;;;;;;;;;;;;;;;6156493;23;19948;-79
2023/02/14 03:56:23;;;;;;;;;;;;;;;;;;6156499;23;19931;-79
2023/02/14 03:58:49;;;;;;;;;;;;;;;;;;6157136;23;19913;-79
2023/02/14 04:01:14;;;;;;;;;;;;;;;;;;6156890;23;20278;-79
2023/02/14 04:03:40;;;;;;;;;;;;;;;;;;6156387;23;19983;-79
2023/02/14 04:06:05;;;;;;;;;;;;;;;;;;6155220;23;19920;-79
2023/02/14 04:08:31;;;;;;;;;;;;;;;;;;6154235;23;20447;-79
2023/02/14 04:10:56;;;;;;;;;;;;;;;;;;6154378;23;19913;-79
2023/02/14 04:13:21;;;;;;;;;;;;;;;;;;6155390;23;19995;-80
2023/02/14 04:15:47;;;;;;;;;;;;;;;;;;6155162;23;19909;-79
2023/02/14 04:20:56;;;;;;;;;;;;;;;;;;6179759;23;19913;-78
2023/02/14 04:23:22;;;;;;;;;;;;;;;;;;6130639;23;19978;-79
2023/02/14 04:25:47;;;;;;;;;;;;;;;;;;6179402;23;19916;-78
2023/02/14 04:28:13;;;;;;;;;;;;;;;;;;6155780;23;20415;-79
2023/02/14 04:30:38;;;;;;;;;;;;;;;;;;6155163;23;19939;-79
2023/02/14 04:33:03;;;;;;;;;;;;;;;;;;6154540;23;19976;-79
2023/02/14 04:35:29;;;;;;;;;;;;;;;;;;6155294;23;20357;-77
2023/02/14 04:37:54;;;;;;;;;;;;;;;;;;6156168;23;19971;-78
2023/02/14 04:40:19;;;;;;;;;;;;;;;;;;6156452;23;19992;-78
2023/02/14 04:42:45;;;;;;;;;;;;;;;;;;6156520;23;19912;-78
2023/02/14 04:45:10;;;;;;;;;;;;;;;;;;6155632;23;20327;-78
2023/02/14 04:47:35;;;;;;;;;;;;;;;;;;6157431;23;19913;-78
2023/02/14 04:50:01;;;;;;;;;;;;;;;;;;6157073;23;19944;-78
2023/02/14 04:52:26;;;;;;;;;;;;;;;;;;6157308;23;19912;-79
2023/02/14 04:54:52;;;;;;;;;;;;;;;;;;6156894;23;20334;-79
2023/02/14 04:57:17;;;;;;;;;;;;;;;;;;6132514;23;19909;-78
2023/02/14 04:59:42;;;;;;;;;;;;;;;;;;6158979;23;19909;-79
2023/02/14 05:02:08;;;;;;;;;;;;;;;;;;6181878;23;19995;-79
2023/02/14 05:04:33;;;;;;;;;;;;;;;;;;6157316;23;19915;-78
2023/02/14 05:06:58;;;;;;;;;;;;;;;;;;6156549;23;19909;-79
2023/02/14 05:09:24;;;;;;;;;;;;;;;;;;6156611;23;19987;-79
2023/02/14 05:11:49;;;;;;;;;;;;;;;;;;6158544;23;19916;-78
2023/02/14 05:14:14;;;;;;;;;;;;;;;;;;6158389;23;20307;-78
2023/02/14 05:16:40;;;;;;;;;;;;;;;;;;6156900;23;19912;-78
2023/02/14 05:19:05;;;;;;;;;;;;;;;;;;6161900;23;20342;-77
2023/02/14 05:21:32;;;;;;;;;;;;;;;;;;6163710;23;20382;-78
2023/02/14 05:23:57;;;;;;;;;;;;;;;;;;6157269;23;19916;-78
2023/02/14 05:26:22;;;;;;;;;;;;;;;;;;6155302;23;20254;-79
2023/02/14 05:28:48;;;;;;;;;;;;;;;;;;6158219;23;19947;-79
2023/02/14 05:31:13;;;;;;;;;;;;;;;;;;6156509;23;20350;-79
2023/02/14 05:33:39;;;;;;;;;;;;;;;;;;6156127;23;20227;-78
2023/02/14 05:36:04;;;;;;;;;;;;;;;;;;6156723;23;19994;-78
2023/02/14 05:38:29;;;;;;;;;;;;;;;;;;6156297;23;19916;-78
2023/02/14 05:40:55;;;;;;;;;;;;;;;;;;6156118;23;20338;-78
2023/02/14 05:43:20;;;;;;;;;;;;;;;;;;6155042;23;20293;-78
2023/02/14 05:45:46;;;;;;;;;;;;;;;;;;6155407;23;19920;-78
2023/02/14 05:48:12;;;;;;;;;;;;;;;;;;6130402;23;19909;-78
2023/02/14 05:50:37;;;;;;;;;;;;;;;;;;6156350;23;19912;-78
2023/02/14 05:53:03;;;;;;;;;;;;;;;;;;6156203;23;19987;-78
2023/02/14 05:55:29;;;;;;;;;;;;;;;;;;6154274;23;19908;-78
2023/02/14 05:57:54;;;;;;;;;;;;;;;;;;6157417;23;20342;-78
2023/02/14 06:00:20;;;;;;;;;;;;;;;;;;6157616;23;19941;-78
2023/02/14 06:02:45;;;;;;;;;;;;;;;;;;6157739;23;19936;-78
2023/02/14 06:05:10;;;;;;;;;;;;;;;;;;6158747;23;19909;-79
2023/02/14 06:07:36;;;;;;;;;;;;;;;;;;6158255;23;19937;-78
2023/02/14 06:10:01;;;;;;;;;;;;;;;;;;6156813;23;19916;-78
2023/02/14 06:12:26;;;;;;;;;;;;;;;;;;6157306;23;19908;-78
2023/02/14 06:14:52;;;;;;;;;;;;;;;;;;6156420;23;20357;-79
2023/02/14 06:17:17;;;;;;;;;;;;;;;;;;6156803;23;20353;-78
2023/02/14 06:19:43;;;;;;;;;;;;;;;;;;6158532;23;19908;-78
2023/02/14 06:22:08;;;;;;;;;;;;;;;;;;6154913;23;20390;-78
2023/02/14 06:24:33;;;;;;;;;;;;;;;;;;6155652;23;19908;-79
2023/02/14 06:26:59;;;;;;;;;;;;;;;;;;6155825;23;19932;-79
2023/02/14 06:29:24;;;;;;;;;;;;;;;;;;6179635;23;20242;-78
2023/02/14 06:31:49;;;;;;;;;;;;;;;;;;6157609;23;19909;-78
2023/02/14 06:34:15;;;;;;;;;;;;;;;;;;6156368;23;20290;-78
2023/02/14 06:36:40;;;;;;;;;;;;;;;;;;6155447;23;19908;-78
2023/02/14 06:39:05;;;;;;;;;;;;;;;;;;6154749;23;20358;-78
2023/02/14 06:41:31;;;;;;;;;;;;;;;;;;6179284;23;19909;-78
2023/02/14 06:43:56;;;;;;;;;;;;;;;;;;6154693;23;19963;-78
2023/02/14 06:46:21;;;;;;;;;;;;;;;;;;6155484;23;19905;-79
2023/02/14 06:48:47;;;;;;;;;;;;;;;;;;6158893;23;20335;-79
2023/02/14 06:51:12;;;;;;;;;;;;;;;;;;6158340;23;19959;-79
2023/02/14 06:53:38;;;;;;;;;;;;;;;;;;6159098;23;19959;-79
2023/02/14 06:56:03;;;;;;;;;;;;;;;;;;6132676;23;20352;-79
2023/02/14 06:58:28;;;;;;;;;;;;;;;;;;6157719;23;20046;-79
2023/02/14 07:00:54;;;;;;;;;;;;;;;;;;6156337;23;20339;-79
2023/02/14 07:03:19;;;;;;;;;;;;;;;;;;6158339;23;20393;-79
2023/02/14 07:05:45;;;;;;;;;;;;;;;;;;6158368;23;19908;-79
2023/02/14 07:08:10;;;;;;;;;;;;;;;;;;6182267;23;19915;-78
2023/02/14 07:10:35;;;;;;;;;;;;;;;;;;6156708;23;19962;-78
2023/02/14 07:13:01;;;;;;;;;;;;;;;;;;6157103;23;20361;-78
2023/02/14 07:15:26;;;;;;;;;;;;;;;;;;6161065;23;19939;-79
2023/02/14 07:17:52;;;;;;;;;;;;;;;;;;6184405;23;19909;-79
2023/02/14 07:20:17;;;;;;;;;;;;;;;;;;6134055;23;20334;-79
2023/02/14 07:22:42;;;;;;;;;;;;;;;;;;6158370;23;19915;-79
2023/02/14 07:25:08;;;;;;;;;;;;;;;;;;6129570;23;19917;-79
2023/02/14 07:27:33;;;;;;;;;;;;;;;;;;6156495;23;20282;-79
2023/02/14 07:29:59;;;;;;;;;;;;;;;;;;6156155;23;19909;-79
2023/02/14 07:32:24;;;;;;;;;;;;;;;;;;6158127;23;19908;-79
2023/02/14 07:34:49;;;;;;;;;;;;;;;;;;6156716;23;19923;-78
2023/02/14 07:37:16;;;;;;;;;;;;;;;;;;6158614;23;20020;-79
2023/02/14 07:39:41;;;;;;;;;;;;;;;;;;6156217;23;20323;-79
2023/02/14 07:42:07;;;;;;;;;;;;;;;;;;6156592;23;19909;-79
2023/02/14 07:44:33;;;;;;;;;;;;;;;;;;6130927;23;20294;-79
2023/02/14 07:46:58;;;;;;;;;;;;;;;;;;6158855;23;20346;-79
2023/02/14 07:49:23;;;;;;;;;;;;;;;;;;6160126;23;19908;-79
2023/02/14 07:51:49;;;;;;;;;;;;;;;;;;6158128;23;19916;-79
2023/02/14 07:54:14;;;;;;;;;;;;;;;;;;6159716;23;19975;-79
2023/02/14 07:56:39;;;;;;;;;;;;;;;;;;6157182;23;19912;-78
2023/02/14 07:59:05;;;;;;;;;;;;;;;;;;6129385;23;19912;-78
2023/02/14 08:01:30;;;;;;;;;;;;;;;;;;6155629;23;19923;-79
2023/02/14 08:03:56;;;;;;;;;;;;;;;;;;6154991;23;19919;-79
2023/02/14 08:06:21;;;;;;;;;;;;;;;;;;6178147;23;20034;-79
2023/02/14 08:08:47;;;;;;;;;;;;;;;;;;6157112;23;20281;-79
2023/02/14 08:12:57;;;;;;;;;;;;;;;;;;6156068;23;19932;-79
2023/02/14 08:13:58;;;;;;;;;;;;;;;;;;6155682;23;19916;-79
2023/02/14 08:16:23;;;;;;;;;;;;;;;;;;6155523;23;19976;-79
2023/02/14 08:18:48;;;;;;;;;;;;;;;;;;6155898;23;20628;-79
2023/02/14 08:21:16;;;;;;;;;;;;;;;;;;6155862;23;19908;-79
2023/02/14 08:23:44;;;;;;;;;;;;;;;;;;6155395;23;20338;-79
2023/02/14 08:26:09;;;;;;;;;;;;;;;;;;6155199;23;19909;-79
2023/02/14 08:28:35;;;;;;;;;;;;;;;;;;6155674;23;20295;-79
2023/02/14 08:31:00;;;;;;;;;;;;;;;;;;6156013;23;19908;-79
2023/02/14 08:33:25;;;;;;;;;;;;;;;;;;6130143;23;19968;-79
2023/02/14 08:35:51;;;;;;;;;;;;;;;;;;6155355;23;19979;-79
2023/02/14 08:38:16;;;;;;;;;;;;;;;;;;6154830;23;20338;-79
2023/02/14 08:40:42;;;;;;;;;;;;;;;;;;6156643;23;19991;-80
2023/02/14 08:43:07;;;;;;;;;;;;;;;;;;6154978;23;19909;-79
2023/02/14 08:45:33;;;;;;;;;;;;;;;;;;6178148;23;20326;-80
2023/02/14 08:47:58;;;;;;;;;;;;;;;;;;6156281;23;19916;-80
2023/02/14 08:50:23;;;;;;;;;;;;;;;;;;6155587;23;20290;-80
2023/02/14 08:52:49;;;;;;;;;;;;;;;;;;6156778;23;20047;-80
2023/02/14 08:55:14;;;;;;;;;;;;;;;;;;6153774;23;19996;-80
2023/02/14 08:57:40;;;;;;;;;;;;;;;;;;6155163;23;19920;-80
2023/02/14 09:00:05;;;;;;;;;;;;;;;;;;6155697;23;19913;-80
2023/02/14 09:02:31;;;;;;;;;;;;;;;;;;6131087;23;19909;-80
2023/02/14 09:04:56;;;;;;;;;;;;;;;;;;6130729;23;20254;-80
2023/02/14 09:07:22;;;;;;;;;;;;;;;;;;6158491;23;19913;-79
2023/02/14 09:09:47;;;;;;;;;;;;;;;;;;6158316;23;19909;-79
2023/02/14 09:12:12;;;;;;;;;;;;;;;;;;6157607;23;19932;-79
2023/02/14 09:14:38;;;;;;;;;;;;;;;;;;6156424;23;19913;-79
2023/02/14 09:17:04;;;;;;;;;;;;;;;;;;6164374;23;19909;-81
2023/02/14 09:19:30;;;;;;;;;;;;;;;;;;6136981;23;19947;-81
2023/02/14 09:21:55;;;;;;;;;;;;;;;;;;6181461;23;19913;-80
2023/02/14 09:24:21;;;;;;;;;;;;;;;;;;6155920;23;19947;-80
2023/02/14 09:26:46;;;;;;;;;;;;;;;;;;6162090;23;19928;-82
2023/02/14 09:29:12;;;;;;;;;;;;;;;;;;6192861;23;19919;-83
2023/02/14 09:31:38;;;;;;;;;;;;;;;;;;6169156;23;19915;-82
2023/02/14 09:36:48;;;;;;;;;;;;;;;;;;6170511;23;19908;-82
2023/02/14 09:39:13;;;;;;;;;;;;;;;;;;6169264;23;19916;-82
2023/02/14 09:41:39;;;;;;;;;;;;;;;;;;6162320;23;19912;-79
2023/02/14 09:44:04;;;;;;;;;;;;;;;;;;6156537;23;20418;-78
2023/02/14 09:46:30;;;;;;;;;;;;;;;;;;6156134;23;19916;-79
2023/02/14 09:48:55;;;;;;;;;;;;;;;;;;6181293;23;19913;-79
2023/02/14 09:51:22;;;;;;;;;;;;;;;;;;6157239;23;19913;-79
2023/02/14 09:53:47;;;;;;;;;;;;;;;;;;6156724;23;19913;-78
2023/02/14 09:56:12;;;;;;;;;;;;;;;;;;6157836;23;19909;-79
2023/02/14 09:58:38;;;;;;;;;;;;;;;;;;6155938;23;20392;-79
2023/02/14 10:01:03;;;;;;;;;;;;;;;;;;6156934;23;19916;-79
2023/02/14 10:03:29;;;;;;;;;;;;;;;;;;6155544;23;19936;-79
2023/02/14 10:05:54;;;;;;;;;;;;;;;;;;6179646;23;19955;-78
2023/02/14 10:08:20;;;;;;;;;;;;;;;;;;6157267;23;20289;-78
2023/02/14 10:10:45;;;;;;;;;;;;;;;;;;6157392;23;19909;-79
2023/02/14 10:13:10;;;;;;;;;;;;;;;;;;6179058;23;19909;-79
2023/02/14 10:15:36;;;;;;;;;;;;;;;;;;6154466;23;19913;-79
2023/02/14 10:18:01;;;;;;;;;;;;;;;;;;6156969;23;19956;-78
2023/02/14 10:20:27;;;;;;;;;;;;;;;;;;6181774;23;20290;-78
2023/02/14 10:22:52;;;;;;;;;;;;;;;;;;6158981;23;19939;-78
2023/02/14 10:25:17;;;;;;;;;;;;;;;;;;6182029;23;19983;-78
2023/02/14 10:27:43;;;;;;;;;;;;;;;;;;6157346;23;19940;-79
2023/02/14 10:30:09;;;;;;;;;;;;;;;;;;6157591;23;19909;-77
2023/02/14 10:32:34;;;;;;;;;;;;;;;;;;6157376;23;19912;-78
2023/02/14 10:34:59;;;;;;;;;;;;;;;;;;6155491;23;19967;-79
2023/02/14 10:37:25;;;;;;;;;;;;;;;;;;6180677;23;20321;-79
2023/02/14 10:39:50;;;;;;;;;;;;;;;;;;6112701;23;19947;-78
2023/02/14 10:42:15;;;;;;;;;;;;;;;;;;6165101;23;19909;-80
2023/02/14 10:44:41;;;;;;;;;;;;;;;;;;6160180;23;19916;-79
2023/02/14 10:47:06;;;;;;;;;;;;;;;;;;6160838;23;20401;-79
2023/02/14 10:49:32;;;;;;;;;;;;;;;;;;6159601;23;19913;-79
2023/02/14 10:51:57;;;;;;;;;;;;;;;;;;6160485;23;19912;-79
2023/02/14 10:54:22;;;;;;;;;;;;;;;;;;6161209;23;19920;-79
2023/02/14 10:56:48;;;;;;;;;;;;;;;;;;6163114;23;19916;-79
2023/02/14 10:59:13;;;;;;;;;;;;;;;;;;6140486;23;19908;-79
2023/02/14 11:01:39;;;;;;;;;;;;;;;;;;6166203;23;19913;-79
2023/02/14 11:04:07;;;;;;;;;;;;;;;;;;6161224;23;19991;-79
2023/02/14 11:06:32;;;;;;;;;;;;;;;;;;6135029;23;19961;-78
2023/02/14 11:08:58;;;;;;;;;;;;;;;;;;6137139;23;19909;-79
2023/02/14 11:11:23;;;;;;;;;;;;;;;;;;6164576;23;19909;-80
2023/02/14 11:13:48;;;;;;;;;;;;;;;;;;6136778;23;20043;-79
2023/02/14 11:16:14;;;;;;;;;;;;;;;;;;6160494;23;19909;-79
2023/02/14 11:18:39;;;;;;;;;;;;;;;;;;6155705;23;19967;-78
2023/02/14 11:21:05;;;;;;;;;;;;;;;;;;6179408;23;19908;-79
2023/02/14 11:23:30;;;;;;;;;;;;;;;;;;6130003;23;19909;-78
2023/02/14 11:25:56;;;;;;;;;;;;;;;;;;6156821;23;20286;-78
2023/02/14 11:28:21;;;;;;;;;;;;;;;;;;6162158;23;19912;-81
2023/02/14 11:30:47;;;;;;;;;;;;;;;;;;6186975;23;19919;-82
2023/02/14 11:33:12;;;;;;;;;;;;;;;;;;6185611;23;19935;-82
2023/02/14 11:35:38;;;;;;;;;;;;;;;;;;6184954;23;20028;-82
2023/02/14 11:38:04;;;;;;;;;;;;;;;;;;6189416;23;19904;-82
2023/02/14 11:40:30;;;;;;;;;;;;;;;;;;6187781;23;19991;-82
2023/02/14 11:42:55;;;;;;;;;;;;;;;;;;6185648;23;19947;-81
2023/02/14 11:45:21;;;;;;;;;;;;;;;;;;6186055;23;19908;-83
2023/02/14 11:47:46;;;;;;;;;;;;;;;;;;6183580;23;19935;-81
2023/02/14 11:50:12;;;;;;;;;;;;;;;;;;6182713;23;19993;-79
2023/02/14 11:52:39;;;;;;;;;;;;;;;;;;6182720;23;19908;-81
2023/02/14 11:55:04;;;;;;;;;;;;;;;;;;6182159;23;19919;-80
2023/02/14 11:57:30;;;;;;;;;;;;;;;;;;6182279;23;19908;-82
2023/02/14 11:59:56;;;;;;;;;;;;;;;;;;6182696;23;19944;-84
2023/02/14 12:02:21;;;;;;;;;;;;;;;;;;6184694;23;19955;-94
2023/02/14 12:04:48;;;;;;;;;;;;;;;;;;6135520;23;19912;-92
2023/02/14 12:07:14;;;;;;;;;;;;;;;;;;6185807;23;19908;-93
2023/02/14 12:09:42;;;;;;;;;;;;;;;;;;6158819;23;19939;-93
2023/02/14 12:12:07;;;;;;;;;;;;;;;;;;6133595;23;19916;-93
2023/02/14 12:14:33;;;;;;;;;;;;;;;;;;6159105;23;20039;-93
2023/02/14 12:16:58;;;;;;;;;;;;;;;;;;6184137;23;19908;-92
2023/02/14 12:19:24;;;;;;;;;;;;;;;;;;6183734;23;19908;-93
2023/02/14 12:21:50;;;;;;;;;;;;;;;;;;6183650;23;19918;-93
2023/02/14 12:24:15;;;;;;;;;;;;;;;;;;6159311;23;19931;-92
2023/02/14 12:26:41;;;;;;;;;;;;;;;;;;6184429;23;19908;-92
2023/02/14 12:29:07;;;;;;;;;;;;;;;;;;6183407;23;19996;-93
2023/02/14 12:31:33;;;;;;;;;;;;;;;;;;6159258;23;19904;-92
2023/02/14 12:33:58;;;;;;;;;;;;;;;;;;6133811;23;19935;-93
2023/02/14 12:36:24;;;;;;;;;;;;;;;;;;6159280;23;19909;-93
2023/02/14 12:38:49;;;;;;;;;;;;;;;;;;6184777;23;19982;-92
2023/02/14 12:41:15;;;;;;;;;;;;;;;;;;6159907;23;19908;-93
2023/02/14 12:43:42;;;;;;;;;;;;;;;;;;6134150;23;19995;-92
2023/02/14 12:46:07;;;;;;;;;;;;;;;;;;6158356;23;19909;-91
2023/02/14 12:48:35;;;;;;;;;;;;;;;;;;6158508;23;19919;-90
2023/02/14 12:51:00;;;;;;;;;;;;;;;;;;6157955;23;19908;-89
2023/02/14 12:53:26;;;;;;;;;;;;;;;;;;6132831;23;20246;-88
2023/02/14 12:55:51;;;;;;;;;;;;;;;;;;6181957;23;20262;-88
2023/02/14 12:58:17;;;;;;;;;;;;;;;;;;6182088;23;19908;-88
2023/02/14 13:00:43;;;;;;;;;;;;;;;;;;6183452;23;19968;-92
2023/02/14 13:03:09;;;;;;;;;;;;;;;;;;6166148;23;19916;-95
2023/02/14 13:05:34;;;;;;;;;;;;;;;;;;6134812;23;19912;-93
2023/02/14 13:08:00;;;;;;;;;;;;;;;;;;6161802;23;19971;-93
2023/02/14 13:10:26;;;;;;;;;;;;;;;;;;6140902;23;19908;-92
2023/02/14 13:12:51;;;;;;;;;;;;;;;;;;6140948;23;19908;-95
2023/02/14 13:15:17;;;;;;;;;;;;;;;;;;6137818;23;19920;-95
2023/02/14 13:17:43;;;;;;;;;;;;;;;;;;6139171;23;19908;-95
2023/02/14 13:20:08;;;;;;;;;;;;;;;;;;6136546;23;19915;-92
2023/02/14 13:22:34;;;;;;;;;;;;;;;;;;6162954;23;19912;-94
2023/02/14 13:25:00;;;;;;;;;;;;;;;;;;6185661;23;19994;-94
2023/02/14 13:27:25;;;;;;;;;;;;;;;;;;6161221;23;19935;-93
2023/02/14 13:29:51;;;;;;;;;;;;;;;;;;6136168;23;19916;-94
2023/02/14 13:32:16;;;;;;;;;;;;;;;;;;6138107;23;19915;-93
2023/02/14 13:34:42;;;;;;;;;;;;;;;;;;6137693;23;19912;-93
2023/02/14 13:37:07;;;;;;;;;;;;;;;;;;6137815;23;19908;-94
2023/02/14 13:39:33;;;;;;;;;;;;;;;;;;6139214;23;19915;-94
2023/02/14 13:42:06;;;;;;;;;;;;;;;;;;6162990;23;19908;-94
2023/02/14 13:44:34;;;;;;;;;;;;;;;;;;6143558;23;19915;-93
2023/02/14 13:46:59;;;;;;;;;;;;;;;;;;6162798;23;19939;-93
2023/02/14 13:49:25;;;;;;;;;;;;;;;;;;6136924;23;19919;-92
2023/02/14 13:51:51;;;;;;;;;;;;;;;;;;6136964;23;19908;-92
2023/02/14 13:54:16;;;;;;;;;;;;;;;;;;6162204;23;20072;-92
2023/02/14 13:56:42;;;;;;;;;;;;;;;;;;6189535;23;19962;-92
2023/02/14 13:59:07;;;;;;;;;;;;;;;;;;6137897;23;19931;-92
2023/02/14 14:01:33;;;;;;;;;;;;;;;;;;6163329;23;19908;-92
2023/02/14 14:03:59;;;;;;;;;;;;;;;;;;6161351;23;20304;-90
2023/02/14 14:06:27;;;;;;;;;;;;;;;;;;6139628;23;20353;-91
2023/02/14 14:08:55;;;;;;;;;;;;;;;;;;6166193;23;19908;-93
2023/02/14 14:11:20;;;;;;;;;;;;;;;;;;6140030;23;19908;-93
2023/02/14 14:13:46;;;;;;;;;;;;;;;;;;6161079;23;20333;-93
2023/02/14 14:16:11;;;;;;;;;;;;;;;;;;6138105;23;19984;-92
2023/02/14 14:18:37;;;;;;;;;;;;;;;;;;6164829;23;19956;-92
2023/02/14 14:21:05;;;;;;;;;;;;;;;;;;6139660;23;20388;-93
2023/02/14 14:23:31;;;;;;;;;;;;;;;;;;6137640;23;20003;-91
2023/02/14 14:25:57;;;;;;;;;;;;;;;;;;6140488;23;19908;-92
2023/02/14 14:28:22;;;;;;;;;;;;;;;;;;6138500;23;20293;-92
2023/02/14 14:30:48;;;;;;;;;;;;;;;;;;6162940;23;20338;-93
2023/02/14 14:33:14;;;;;;;;;;;;;;;;;;6138909;23;19940;-91
2023/02/14 14:35:39;;;;;;;;;;;;;;;;;;6138677;23;19912;-91
2023/02/14 14:38:05;;;;;;;;;;;;;;;;;;6164539;23;19931;-93
2023/02/14 14:40:31;;;;;;;;;;;;;;;;;;6143121;23;19948;-91
2023/02/14 14:42:56;;;;;;;;;;;;;;;;;;6139241;23;20287;-89
2023/02/14 14:45:22;;;;;;;;;;;;;;;;;;6164975;23;20270;-89
2023/02/14 14:47:48;;;;;;;;;;;;;;;;;;6192229;23;20358;-86
2023/02/14 14:50:16;;;;;;;;;;;;;;;;;;6192374;23;19908;-87
2023/02/14 14:52:42;;;;;;;;;;;;;;;;;;6192942;23;19908;-87
2023/02/14 14:55:08;;;;;;;;;;;;;;;;;;6190391;23;19947;-87
2023/02/14 14:57:33;;;;;;;;;;;;;;;;;;6191387;23;20273;-86
2023/02/14 14:59:59;;;;;;;;;;;;;;;;;;6146097;23;19983;-86
2023/02/14 15:02:25;;;;;;;;;;;;;;;;;;6199731;23;20191;-87
2023/02/14 15:04:51;;;;;;;;;;;;;;;;;;6191653;23;19909;-89
2023/02/14 15:07:17;;;;;;;;;;;;;;;;;;6165388;23;19959;-89
2023/02/14 15:09:42;;;;;;;;;;;;;;;;;;6186580;23;19979;-90
2023/02/14 15:14:56;;;;;;;;;;;;;;;;;;6160365;23;19912;-92
2023/02/14 15:17:21;;;;;;;;;;;;;;;;;;6135325;23;19908;-92
2023/02/14 15:19:49;;;;;;;;;;;;;;;;;;6160722;23;19909;-92
2023/02/14 15:22:15;;;;;;;;;;;;;;;;;;6160711;23;19916;-93
2023/02/14 15:24:40;;;;;;;;;;;;;;;;;;6160104;23;19908;-93
2023/02/14 15:27:06;;;;;;;;;;;;;;;;;;6184347;23;19904;-90
2023/02/14 15:29:32;;;;;;;;;;;;;;;;;;6135455;23;19912;-94
2023/02/14 15:31:58;;;;;;;;;;;;;;;;;;6162435;23;19963;-92
2023/02/14 15:34:23;;;;;;;;;;;;;;;;;;6186750;23;19912;-93
2023/02/14 15:36:51;;;;;;;;;;;;;;;;;;6143418;23;19912;-92
2023/02/14 15:39:16;;;;;;;;;;;;;;;;;;6143939;23;19908;-93
2023/02/14 15:41:41;;;;;;;;;;;;;;;;;;6149141;23;19909;-92
2023/02/14 15:44:07;;;;;;;;;;;;;;;;;;6175287;23;20242;-91
2023/02/14 15:46:33;;;;;;;;;;;;;;;;;;6194768;23;20210;-89
2023/02/14 15:49:01;;;;;;;;;;;;;;;;;;6139710;23;19944;-91
2023/02/14 15:51:27;;;;;;;;;;;;;;;;;;6145860;23;19944;-87
2023/02/14 15:53:52;;;;;;;;;;;;;;;;;;6143905;23;19912;-88
2023/02/14 15:56:18;;;;;;;;;;;;;;;;;;6168036;23;19908;-89
2023/02/14 15:58:44;;;;;;;;;;;;;;;;;;6171181;23;19908;-85
2023/02/14 16:01:09;;;;;;;;;;;;;;;;;;6169319;23;19919;-88
2023/02/14 16:03:38;;;;;;;;;;;;;;;;;;6174858;23;19908;-89
2023/02/14 16:06:04;;;;;;;;;;;;;;;;;;6155268;23;19916;-87
2023/02/14 16:08:31;;;;;;;;;;;;;;;;;;6204325;23;19912;-87
2023/02/14 16:10:57;;;;;;;;;;;;;;;;;;6152902;23;19930;-90
2023/02/14 16:13:25;;;;;;;;;;;;;;;;;;6178422;23;19908;-88
2023/02/14 16:15:51;;;;;;;;;;;;;;;;;;6151589;23;20050;-88
2023/02/14 16:18:17;;;;;;;;;;;;;;;;;;6178564;23;19908;-88
2023/02/14 16:20:44;;;;;;;;;;;;;;;;;;6178974;23;19911;-86
2023/02/14 16:23:10;;;;;;;;;;;;;;;;;;6183984;23;19912;-87
2023/02/14 16:25:36;;;;;;;;;;;;;;;;;;6185440;23;19908;-88
2023/02/14 16:28:02;;;;;;;;;;;;;;;;;;6182304;23;19908;-88
2023/02/14 16:30:36;;;;;;;;;;;;;;;;;;6185677;23;21745;-88
2023/02/14 16:33:05;;;;;;;;;;;;;;;;;;6147549;23;19905;-86
2023/02/14 16:38:35;;;;;;;;;;;;;;;;;;6189971;23;19905;-85
2023/02/14 16:43:41;;;;;;;;;;;;;;;;;;6163277;23;19929;-84
2023/02/14 16:46:08;;;;;;;;;;;;;;;;;;6088930;23;19909;-85
2023/02/14 16:54:00;;;;;;;;;;;;;;;;;;6159872;23;19928;-83
2023/02/14 16:59:09;;;;;;;;;;;;;;;;;;6163186;23;20066;-85
2023/02/14 17:04:26;;;;;;;;;;;;;;;;;;6163119;23;19924;-81
2023/02/14 17:07:02;;;;;;;;;;;;;;;;;;6183677;23;19961;-84
2023/02/14 17:09:45;;;;;;;;;;;;;;;;;;6162604;23;20200;-83
2023/02/14 17:15:06;;;;;;;;;;;;;;;;;;6173168;23;19904;-84